createdAt,value
2022-09-26T00:00:31.799Z,0.00
2022-09-26T00:01:31.882Z,0.00
2022-09-26T00:02:31.801Z,0.00
2022-09-26T00:03:31.786Z,0.00
2022-09-26T00:04:33.017Z,0.00
2022-09-26T00:05:32.764Z,0.00
2022-09-26T00:06:31.771Z,0.00
2022-09-26T00:07:31.804Z,0.00
2022-09-26T00:08:31.764Z,0.00
2022-09-26T00:09:31.743Z,0.00
2022-09-26T00:10:31.754Z,0.00
2022-09-26T00:11:31.744Z,0.00
2022-09-26T00:12:31.745Z,0.00
2022-09-26T00:13:31.724Z,0.00
2022-09-26T00:14:31.698Z,0.00
2022-09-26T00:15:31.726Z,0.00
2022-09-26T00:16:31.758Z,0.00
2022-09-26T00:17:31.709Z,0.00
2022-09-26T00:18:31.682Z,0.00
2022-09-26T00:19:31.671Z,0.00
2022-09-26T00:20:31.689Z,0.00
2022-09-26T00:21:31.655Z,0.00
2022-09-26T00:22:31.659Z,0.00
2022-09-26T00:23:31.658Z,0.00
2022-09-26T00:24:31.648Z,0.00
2022-09-26T00:25:31.657Z,0.00
2022-09-26T00:26:31.647Z,0.00
2022-09-26T00:27:31.637Z,0.00
2022-09-26T00:28:31.668Z,0.00
2022-09-26T00:29:32.469Z,0.00
2022-09-26T00:30:31.672Z,0.00
2022-09-26T00:31:31.613Z,0.00
2022-09-26T00:32:31.601Z,0.00
2022-09-26T00:33:31.605Z,0.00
2022-09-26T00:34:31.649Z,0.00
2022-09-26T00:35:31.577Z,0.00
2022-09-26T00:36:38.023Z,0.00
2022-09-26T00:37:33.557Z,0.00
2022-09-26T00:38:31.560Z,0.00
2022-09-26T00:39:31.773Z,0.00
2022-09-26T00:40:31.625Z,0.00
2022-09-26T00:41:31.544Z,0.00
2022-09-26T00:42:31.545Z,0.00
2022-09-26T00:43:31.539Z,0.00
2022-09-26T00:44:31.552Z,0.00
2022-09-26T00:45:31.578Z,0.00
2022-09-26T00:46:31.688Z,0.00
2022-09-26T00:47:31.504Z,0.00
2022-09-26T00:48:31.509Z,0.00
2022-09-26T00:49:31.546Z,0.00
2022-09-26T00:50:31.545Z,0.00
2022-09-26T00:51:31.492Z,0.00
2022-09-26T00:52:31.482Z,0.00
2022-09-26T00:53:31.470Z,0.00
2022-09-26T00:54:31.463Z,0.00
2022-09-26T00:55:31.477Z,0.00
2022-09-26T00:56:31.454Z,0.00
2022-09-26T00:57:31.441Z,0.00
2022-09-26T00:58:31.433Z,0.00
2022-09-26T00:59:31.441Z,0.00
2022-09-26T01:00:31.454Z,0.00
2022-09-26T01:01:31.541Z,0.00
2022-09-26T01:02:31.538Z,0.00
2022-09-26T01:03:32.435Z,0.00
2022-09-26T01:04:31.409Z,0.00
2022-09-26T01:05:31.394Z,0.00
2022-09-26T01:06:31.406Z,0.00
2022-09-26T01:07:31.392Z,0.00
2022-09-26T01:08:31.363Z,0.00
2022-09-26T01:09:31.373Z,0.00
2022-09-26T01:10:31.358Z,0.00
2022-09-26T01:11:31.375Z,0.00
2022-09-26T01:12:31.383Z,0.00
2022-09-26T01:13:31.374Z,0.00
2022-09-26T01:14:31.341Z,0.00
2022-09-26T01:15:31.370Z,0.00
2022-09-26T01:16:31.406Z,0.00
2022-09-26T01:17:31.331Z,0.00
2022-09-26T01:18:31.322Z,0.00
2022-09-26T01:19:31.312Z,0.00
2022-09-26T01:20:31.315Z,0.00
2022-09-26T01:21:31.312Z,0.00
2022-09-26T01:22:31.284Z,0.00
2022-09-26T01:23:31.287Z,0.00
2022-09-26T01:24:31.281Z,0.00
2022-09-26T01:25:31.279Z,0.00
2022-09-26T01:26:31.263Z,0.00
2022-09-26T01:27:31.264Z,0.00
2022-09-26T01:28:31.279Z,0.00
2022-09-26T01:29:31.256Z,0.00
2022-09-26T01:30:31.283Z,0.00
2022-09-26T01:31:31.239Z,0.00
2022-09-26T01:32:31.266Z,0.00
2022-09-26T01:33:31.240Z,0.00
2022-09-26T01:34:31.203Z,0.00
2022-09-26T01:35:32.232Z,0.00
2022-09-26T01:36:31.220Z,0.00
2022-09-26T01:37:31.214Z,0.00
2022-09-26T01:38:31.201Z,0.00
2022-09-26T01:39:31.207Z,0.00
2022-09-26T01:40:31.289Z,0.00
2022-09-26T01:41:31.194Z,0.00
2022-09-26T01:42:31.209Z,0.00
2022-09-26T01:43:31.171Z,0.00
2022-09-26T01:44:31.155Z,0.00
2022-09-26T01:45:31.234Z,0.00
2022-09-26T01:46:31.140Z,0.00
2022-09-26T01:47:31.141Z,0.00
2022-09-26T01:48:31.167Z,0.00
2022-09-26T01:49:31.134Z,0.00
2022-09-26T01:50:31.139Z,0.00
2022-09-26T01:51:31.152Z,0.00
2022-09-26T01:52:31.112Z,0.00
2022-09-26T01:53:31.107Z,0.00
2022-09-26T01:54:31.096Z,0.00
2022-09-26T01:55:31.120Z,0.00
2022-09-26T01:56:31.119Z,0.00
2022-09-26T01:57:31.067Z,0.00
2022-09-26T01:58:31.063Z,0.00
2022-09-26T01:59:31.087Z,0.00
2022-09-26T02:00:31.081Z,0.00
2022-09-26T02:01:31.164Z,0.00
2022-09-26T02:02:31.133Z,0.00
2022-09-26T02:03:31.048Z,0.00
2022-09-26T02:04:31.039Z,0.00
2022-09-26T02:05:31.018Z,0.00
2022-09-26T02:06:31.052Z,0.00
2022-09-26T02:07:31.019Z,0.00
2022-09-26T02:08:31.015Z,0.00
2022-09-26T02:09:30.995Z,0.00
2022-09-26T02:10:31.010Z,0.00
2022-09-26T02:11:30.995Z,0.00
2022-09-26T02:12:31.040Z,0.00
2022-09-26T02:13:30.972Z,0.00
2022-09-26T02:14:30.963Z,0.00
2022-09-26T02:15:30.963Z,0.00
2022-09-26T02:16:31.041Z,0.00
2022-09-26T02:17:30.958Z,0.00
2022-09-26T02:18:30.958Z,0.00
2022-09-26T02:19:30.930Z,0.00
2022-09-26T02:20:30.923Z,0.00
2022-09-26T02:21:30.950Z,0.00
2022-09-26T02:22:30.923Z,0.00
2022-09-26T02:23:30.972Z,0.00
2022-09-26T02:24:30.902Z,0.00
2022-09-26T02:25:30.883Z,0.00
2022-09-26T02:26:30.910Z,0.00
2022-09-26T02:27:30.884Z,0.00
2022-09-26T02:28:30.903Z,0.00
2022-09-26T02:29:30.872Z,0.00
2022-09-26T02:30:30.863Z,0.00
2022-09-26T02:31:30.899Z,0.00
2022-09-26T02:32:30.866Z,0.00
2022-09-26T02:33:30.850Z,0.00
2022-09-26T02:34:30.839Z,0.00
2022-09-26T02:35:30.849Z,0.00
2022-09-26T02:36:30.937Z,0.00
2022-09-26T02:37:30.827Z,0.00
2022-09-26T02:38:30.849Z,0.00
2022-09-26T02:39:30.812Z,0.00
2022-09-26T02:40:30.874Z,0.00
2022-09-26T02:41:30.821Z,0.00
2022-09-26T02:42:30.816Z,0.00
2022-09-26T02:43:30.785Z,0.00
2022-09-26T02:44:30.799Z,0.00
2022-09-26T02:45:30.814Z,0.00
2022-09-26T02:46:30.773Z,0.00
2022-09-26T02:47:30.752Z,0.00
2022-09-26T02:48:30.783Z,0.00
2022-09-26T02:49:30.756Z,0.00
2022-09-26T02:50:32.908Z,0.00
2022-09-26T02:51:30.743Z,0.00
2022-09-26T02:52:30.736Z,0.00
2022-09-26T02:53:30.777Z,0.00
2022-09-26T02:54:30.708Z,0.00
2022-09-26T02:55:30.718Z,0.00
2022-09-26T02:56:30.695Z,0.00
2022-09-26T02:57:30.695Z,0.00
2022-09-26T02:58:30.705Z,0.00
2022-09-26T02:59:30.683Z,0.00
2022-09-26T03:00:30.679Z,0.00
2022-09-26T03:01:30.684Z,0.00
2022-09-26T03:02:31.447Z,0.00
2022-09-26T03:03:30.729Z,0.00
2022-09-26T03:04:30.730Z,0.00
2022-09-26T03:05:30.655Z,0.00
2022-09-26T03:06:30.659Z,0.00
2022-09-26T03:07:30.637Z,0.00
2022-09-26T03:08:30.668Z,0.00
2022-09-26T03:09:30.624Z,0.00
2022-09-26T03:10:30.626Z,0.00
2022-09-26T03:11:30.618Z,0.00
2022-09-26T03:12:30.602Z,0.00
2022-09-26T03:13:30.614Z,0.00
2022-09-26T03:14:30.606Z,0.00
2022-09-26T03:15:30.623Z,0.00
2022-09-26T03:16:30.659Z,0.00
2022-09-26T03:17:30.567Z,0.00
2022-09-26T03:18:30.584Z,0.00
2022-09-26T03:19:30.567Z,0.00
2022-09-26T03:20:30.558Z,0.00
2022-09-26T03:21:34.867Z,0.00
2022-09-26T03:22:31.602Z,0.00
2022-09-26T03:23:30.563Z,0.00
2022-09-26T03:24:30.585Z,0.00
2022-09-26T03:25:30.517Z,0.00
2022-09-26T03:26:30.522Z,0.00
2022-09-26T03:27:30.502Z,0.00
2022-09-26T03:28:35.324Z,0.00
2022-09-26T03:29:32.506Z,0.00
2022-09-26T03:30:30.490Z,0.00
2022-09-26T03:31:31.661Z,0.00
2022-09-26T03:32:30.512Z,0.00
2022-09-26T03:33:30.481Z,0.00
2022-09-26T03:34:30.484Z,0.00
2022-09-26T03:35:30.458Z,0.00
2022-09-26T03:36:30.456Z,0.00
2022-09-26T03:37:30.439Z,0.00
2022-09-26T03:38:30.449Z,0.00
2022-09-26T03:39:30.442Z,0.00
2022-09-26T03:40:31.507Z,0.00
2022-09-26T03:41:30.422Z,0.00
2022-09-26T03:42:30.410Z,0.00
2022-09-26T03:43:30.407Z,0.00
2022-09-26T03:44:30.447Z,0.00
2022-09-26T03:45:30.453Z,0.00
2022-09-26T03:46:30.467Z,0.00
2022-09-26T03:47:30.394Z,0.00
2022-09-26T03:48:30.407Z,0.00
2022-09-26T03:49:30.421Z,0.00
2022-09-26T03:50:30.391Z,0.00
2022-09-26T03:51:30.369Z,0.00
2022-09-26T03:52:30.363Z,0.00
2022-09-26T03:53:30.364Z,0.00
2022-09-26T03:54:30.360Z,0.00
2022-09-26T03:55:30.344Z,0.00
2022-09-26T03:56:30.323Z,0.00
2022-09-26T03:57:30.321Z,0.00
2022-09-26T03:58:30.317Z,0.00
2022-09-26T03:59:30.312Z,0.00
2022-09-26T04:00:30.337Z,0.00
2022-09-26T04:01:30.354Z,0.00
2022-09-26T04:02:30.418Z,0.00
2022-09-26T04:03:30.287Z,0.00
2022-09-26T04:04:30.269Z,0.00
2022-09-26T04:05:30.288Z,0.00
2022-09-26T04:06:30.279Z,0.00
2022-09-26T04:07:30.275Z,0.00
2022-09-26T04:08:30.262Z,0.00
2022-09-26T04:09:30.249Z,0.00
2022-09-26T04:10:30.276Z,0.00
2022-09-26T04:11:30.255Z,0.00
2022-09-26T04:12:30.279Z,0.00
2022-09-26T04:13:53.837Z,0.00
2022-09-26T04:14:32.231Z,0.00
2022-09-26T04:15:30.227Z,0.00
2022-09-26T04:16:30.356Z,0.00
2022-09-26T04:17:30.220Z,0.00
2022-09-26T04:18:30.200Z,0.00
2022-09-26T04:19:30.197Z,0.00
2022-09-26T04:20:30.208Z,0.00
2022-09-26T04:21:30.182Z,0.00
2022-09-26T04:22:30.173Z,0.00
2022-09-26T04:23:30.162Z,0.00
2022-09-26T04:24:30.221Z,0.00
2022-09-26T04:25:30.347Z,0.00
2022-09-26T04:26:30.162Z,0.00
2022-09-26T04:27:30.144Z,0.00
2022-09-26T04:28:30.138Z,0.00
2022-09-26T04:29:30.116Z,0.00
2022-09-26T04:30:30.131Z,0.00
2022-09-26T04:31:30.234Z,0.00
2022-09-26T04:32:30.123Z,0.00
2022-09-26T04:33:30.102Z,0.00
2022-09-26T04:34:30.091Z,0.00
2022-09-26T04:35:30.091Z,0.00
2022-09-26T04:36:30.109Z,0.00
2022-09-26T04:37:30.090Z,0.00
2022-09-26T04:38:30.095Z,0.00
2022-09-26T04:39:30.054Z,0.00
2022-09-26T04:40:30.113Z,0.00
2022-09-26T04:41:30.096Z,0.00
2022-09-26T04:42:30.073Z,0.00
2022-09-26T04:43:30.053Z,0.00
2022-09-26T04:44:30.168Z,0.00
2022-09-26T04:45:30.109Z,0.00
2022-09-26T04:46:31.197Z,0.00
2022-09-26T04:47:31.040Z,0.00
2022-09-26T04:48:30.013Z,0.00
2022-09-26T04:49:30.967Z,0.00
2022-09-26T04:50:30.018Z,0.00
2022-09-26T04:51:30.987Z,0.00
2022-09-26T04:52:30.070Z,0.00
2022-09-26T04:53:30.027Z,0.00
2022-09-26T04:54:30.964Z,0.00
2022-09-26T04:55:29.960Z,0.00
2022-09-26T04:56:30.102Z,0.00
2022-09-26T04:57:29.969Z,0.00
2022-09-26T04:58:29.973Z,0.00
2022-09-26T04:59:29.946Z,0.00
2022-09-26T05:00:29.985Z,0.00
2022-09-26T05:01:31.084Z,0.00
2022-09-26T05:02:30.516Z,0.00
2022-09-26T05:03:30.944Z,0.00
2022-09-26T05:04:29.919Z,0.00
2022-09-26T05:05:29.920Z,0.00
2022-09-26T05:06:29.963Z,0.00
2022-09-26T05:07:29.942Z,0.00
2022-09-26T05:08:29.899Z,5.62
2022-09-26T05:09:34.186Z,5.62
2022-09-26T05:10:31.888Z,5.62
2022-09-26T05:11:29.872Z,5.62
2022-09-26T05:12:29.858Z,5.62
2022-09-26T05:13:29.896Z,5.62
2022-09-26T05:14:29.857Z,5.62
2022-09-26T05:15:29.851Z,11.25
2022-09-26T05:16:29.877Z,11.25
2022-09-26T05:17:29.844Z,11.25
2022-09-26T05:18:29.830Z,11.25
2022-09-26T05:19:29.840Z,11.25
2022-09-26T05:20:29.835Z,16.88
2022-09-26T05:21:29.800Z,16.88
2022-09-26T05:22:29.802Z,16.88
2022-09-26T05:23:29.831Z,16.88
2022-09-26T05:24:29.795Z,16.88
2022-09-26T05:25:29.818Z,16.88
2022-09-26T05:26:29.782Z,22.50
2022-09-26T05:27:29.855Z,22.50
2022-09-26T05:28:29.772Z,22.50
2022-09-26T05:29:30.771Z,28.12
2022-09-26T05:30:29.757Z,28.12
2022-09-26T05:31:29.794Z,28.12
2022-09-26T05:32:29.784Z,33.75
2022-09-26T05:33:29.759Z,33.75
2022-09-26T05:34:29.768Z,33.75
2022-09-26T05:35:29.731Z,33.75
2022-09-26T05:36:29.722Z,39.38
2022-09-26T05:37:30.716Z,39.38
2022-09-26T05:38:29.704Z,39.38
2022-09-26T05:39:29.722Z,39.38
2022-09-26T05:40:29.708Z,33.75
2022-09-26T05:41:29.691Z,33.75
2022-09-26T05:42:29.707Z,33.75
2022-09-26T05:43:29.671Z,33.75
2022-09-26T05:44:29.690Z,28.12
2022-09-26T05:45:29.654Z,33.75
2022-09-26T05:46:29.720Z,33.75
2022-09-26T05:47:29.651Z,33.75
2022-09-26T05:48:29.634Z,28.12
2022-09-26T05:49:29.695Z,22.50
2022-09-26T05:50:29.627Z,22.50
2022-09-26T05:51:29.681Z,22.50
2022-09-26T05:52:29.618Z,22.50
2022-09-26T05:53:29.629Z,22.50
2022-09-26T05:54:29.641Z,22.50
2022-09-26T05:55:29.603Z,28.12
2022-09-26T05:56:29.597Z,33.75
2022-09-26T05:57:29.601Z,33.75
2022-09-26T05:58:29.587Z,33.75
2022-09-26T05:59:29.589Z,28.12
2022-09-26T06:00:29.635Z,22.50
2022-09-26T06:01:29.626Z,16.88
2022-09-26T06:02:29.617Z,16.88
2022-09-26T06:03:29.602Z,16.88
2022-09-26T06:04:29.647Z,16.88
2022-09-26T06:05:29.558Z,16.88
2022-09-26T06:06:29.533Z,22.50
2022-09-26T06:07:29.534Z,22.50
2022-09-26T06:08:29.523Z,22.50
2022-09-26T06:09:29.568Z,28.12
2022-09-26T06:10:29.529Z,28.12
2022-09-26T06:11:29.561Z,28.12
2022-09-26T06:12:29.490Z,28.12
2022-09-26T06:13:29.501Z,33.75
2022-09-26T06:14:29.501Z,39.38
2022-09-26T06:15:29.519Z,45.00
2022-09-26T06:16:29.601Z,50.62
2022-09-26T06:17:29.485Z,61.88
2022-09-26T06:18:29.529Z,67.50
2022-09-26T06:19:29.466Z,73.12
2022-09-26T06:20:29.498Z,78.75
2022-09-26T06:21:29.466Z,84.38
2022-09-26T06:22:29.494Z,84.38
2022-09-26T06:23:29.435Z,78.75
2022-09-26T06:24:29.438Z,78.75
2022-09-26T06:25:29.489Z,73.12
2022-09-26T06:26:29.441Z,67.50
2022-09-26T06:27:29.426Z,56.25
2022-09-26T06:28:29.409Z,50.62
2022-09-26T06:29:29.416Z,50.62
2022-09-26T06:30:29.423Z,61.88
2022-09-26T06:31:29.442Z,78.75
2022-09-26T06:32:30.497Z,84.38
2022-09-26T06:33:33.282Z,84.38
2022-09-26T06:34:30.413Z,90.00
2022-09-26T06:35:29.446Z,101.25
2022-09-26T06:36:29.365Z,90.00
2022-09-26T06:37:29.357Z,95.62
2022-09-26T06:38:29.353Z,112.50
2022-09-26T06:39:29.341Z,140.62
2022-09-26T06:40:29.399Z,168.75
2022-09-26T06:41:29.397Z,180.00
2022-09-26T06:42:29.332Z,185.62
2022-09-26T06:43:29.401Z,180.00
2022-09-26T06:44:29.316Z,168.75
2022-09-26T06:45:29.295Z,163.12
2022-09-26T06:46:29.392Z,157.50
2022-09-26T06:47:29.320Z,163.12
2022-09-26T06:48:29.271Z,157.50
2022-09-26T06:49:29.271Z,146.25
2022-09-26T06:50:29.273Z,135.00
2022-09-26T06:51:29.276Z,140.62
2022-09-26T06:52:29.336Z,151.88
2022-09-26T06:53:29.247Z,151.88
2022-09-26T06:54:29.243Z,157.50
2022-09-26T06:55:29.238Z,163.12
2022-09-26T06:56:29.269Z,168.75
2022-09-26T06:57:29.235Z,168.75
2022-09-26T06:58:29.215Z,174.38
2022-09-26T06:59:29.216Z,168.75
2022-09-26T07:00:29.234Z,151.88
2022-09-26T07:01:29.326Z,135.00
2022-09-26T07:02:29.219Z,135.00
2022-09-26T07:03:29.191Z,146.25
2022-09-26T07:04:29.175Z,163.12
2022-09-26T07:05:29.199Z,180.00
2022-09-26T07:06:29.163Z,185.62
2022-09-26T07:07:29.166Z,196.88
2022-09-26T07:08:57.307Z,213.75
2022-09-26T07:09:31.148Z,230.62
2022-09-26T07:10:29.155Z,241.88
2022-09-26T07:11:50.977Z,264.38
2022-09-26T07:12:31.140Z,253.12
2022-09-26T07:13:29.128Z,230.62
2022-09-26T07:14:29.100Z,191.25
2022-09-26T07:15:29.112Z,191.25
2022-09-26T07:16:29.231Z,191.25
2022-09-26T07:17:29.108Z,202.50
2022-09-26T07:18:29.083Z,213.75
2022-09-26T07:19:29.079Z,208.12
2022-09-26T07:21:01.031Z,230.62
2022-09-26T07:21:29.048Z,275.62
2022-09-26T07:22:29.075Z,326.25
2022-09-26T07:23:29.951Z,365.62
2022-09-26T07:24:30.039Z,410.62
2022-09-26T07:25:29.019Z,551.25
2022-09-26T07:26:29.021Z,691.88
2022-09-26T07:27:29.035Z,742.50
2022-09-26T07:28:29.035Z,691.88
2022-09-26T07:29:29.007Z,787.50
2022-09-26T07:30:29.015Z,731.25
2022-09-26T07:31:29.046Z,804.38
2022-09-26T07:32:28.979Z,866.25
2022-09-26T07:33:28.988Z,461.25
2022-09-26T07:34:28.979Z,399.38
2022-09-26T07:35:28.982Z,472.50
2022-09-26T07:36:28.955Z,376.88
2022-09-26T07:37:28.947Z,725.62
2022-09-26T07:38:28.957Z,489.38
2022-09-26T07:39:28.968Z,360.00
2022-09-26T07:40:28.968Z,416.25
2022-09-26T07:41:28.915Z,618.75
2022-09-26T07:42:28.932Z,573.75
2022-09-26T07:43:53.600Z,573.75
2022-09-26T07:45:09.665Z,703.12
2022-09-26T07:45:31.123Z,1620.00
2022-09-26T07:46:29.916Z,1074.38
2022-09-26T07:47:28.886Z,1451.25
2022-09-26T07:48:28.880Z,630.00
2022-09-26T07:49:28.888Z,562.50
2022-09-26T07:50:28.874Z,1299.38
2022-09-26T07:51:28.855Z,691.88
2022-09-26T07:52:28.843Z,596.25
2022-09-26T07:53:28.835Z,517.50
2022-09-26T07:54:28.858Z,427.50
2022-09-26T07:55:28.829Z,551.25
2022-09-26T07:56:28.870Z,523.12
2022-09-26T07:57:28.830Z,421.88
2022-09-26T07:58:28.810Z,393.75
2022-09-26T07:59:28.842Z,511.88
2022-09-26T08:00:28.806Z,1237.50
2022-09-26T08:01:28.862Z,1080.00
2022-09-26T08:02:29.594Z,556.88
2022-09-26T08:03:28.782Z,1389.38
2022-09-26T08:04:28.845Z,472.50
2022-09-26T08:05:28.800Z,551.25
2022-09-26T08:06:28.767Z,1310.62
2022-09-26T08:07:28.842Z,1209.38
2022-09-26T08:08:28.760Z,624.38
2022-09-26T08:09:28.800Z,798.75
2022-09-26T08:10:28.766Z,478.12
2022-09-26T08:11:28.726Z,517.50
2022-09-26T08:12:28.721Z,1198.12
2022-09-26T08:13:28.718Z,1698.75
2022-09-26T08:14:28.714Z,528.75
2022-09-26T08:15:28.718Z,1012.50
2022-09-26T08:16:28.772Z,1023.75
2022-09-26T08:17:28.686Z,1299.38
2022-09-26T08:18:28.701Z,1659.38
2022-09-26T08:19:28.684Z,1929.38
2022-09-26T08:20:32.156Z,973.12
2022-09-26T08:21:29.668Z,641.25
2022-09-26T08:22:28.659Z,1063.12
2022-09-26T08:23:28.655Z,2058.75
2022-09-26T08:24:28.642Z,787.50
2022-09-26T08:25:28.714Z,736.88
2022-09-26T08:26:28.626Z,1215.00
2022-09-26T08:27:28.635Z,742.50
2022-09-26T08:28:28.622Z,348.75
2022-09-26T08:29:28.615Z,315.00
2022-09-26T08:30:28.647Z,348.75
2022-09-26T08:31:28.615Z,393.75
2022-09-26T08:32:28.602Z,511.88
2022-09-26T08:33:28.591Z,241.88
2022-09-26T08:34:28.591Z,331.88
2022-09-26T08:35:28.598Z,320.62
2022-09-26T08:36:28.560Z,253.12
2022-09-26T08:37:28.572Z,286.88
2022-09-26T08:38:28.554Z,315.00
2022-09-26T08:39:33.121Z,331.88
2022-09-26T08:40:29.625Z,331.88
2022-09-26T08:41:28.528Z,331.88
2022-09-26T08:42:28.568Z,315.00
2022-09-26T08:43:28.530Z,315.00
2022-09-26T08:44:29.490Z,421.88
2022-09-26T08:45:28.510Z,860.62
2022-09-26T08:46:28.579Z,815.62
2022-09-26T08:47:28.485Z,956.25
2022-09-26T08:48:28.508Z,455.62
2022-09-26T08:49:28.473Z,320.62
2022-09-26T08:50:28.497Z,528.75
2022-09-26T08:51:29.444Z,810.00
2022-09-26T08:52:29.482Z,871.88
2022-09-26T08:53:28.470Z,2497.50
2022-09-26T08:54:28.444Z,804.38
2022-09-26T08:55:28.456Z,1096.88
2022-09-26T08:56:28.443Z,669.38
2022-09-26T08:57:28.433Z,421.88
2022-09-26T08:58:29.090Z,365.62
2022-09-26T08:59:29.408Z,478.12
2022-09-26T09:00:28.440Z,562.50
2022-09-26T09:01:28.500Z,720.00
2022-09-26T09:02:28.495Z,489.38
2022-09-26T09:03:28.395Z,427.50
2022-09-26T09:04:28.472Z,309.38
2022-09-26T09:05:28.384Z,371.25
2022-09-26T09:06:28.390Z,331.88
2022-09-26T09:07:28.381Z,326.25
2022-09-26T09:08:28.364Z,371.25
2022-09-26T09:09:28.356Z,990.00
2022-09-26T09:10:28.348Z,1608.75
2022-09-26T09:11:28.380Z,675.00
2022-09-26T09:12:32.111Z,2593.12
2022-09-26T09:13:29.335Z,2362.50
2022-09-26T09:14:28.327Z,2846.25
2022-09-26T09:15:28.327Z,1141.88
2022-09-26T09:16:28.550Z,2604.38
2022-09-26T09:17:28.312Z,736.88
2022-09-26T09:18:28.303Z,2750.62
2022-09-26T09:19:28.285Z,2739.38
2022-09-26T09:20:28.307Z,2688.75
2022-09-26T09:21:28.287Z,2840.62
2022-09-26T09:22:28.281Z,3003.75
2022-09-26T09:23:28.334Z,2790.00
2022-09-26T09:24:28.279Z,866.25
2022-09-26T09:25:28.251Z,776.25
2022-09-26T09:28:30.256Z,1873.12
2022-09-26T09:29:28.264Z,1265.62
2022-09-26T09:30:28.220Z,2576.25
2022-09-26T09:31:28.221Z,2773.12
2022-09-26T09:32:28.243Z,3099.38
2022-09-26T09:33:28.194Z,3195.00
2022-09-26T09:34:28.205Z,2902.50
2022-09-26T09:35:28.197Z,2953.12
2022-09-26T09:36:28.197Z,3037.50
2022-09-26T09:37:28.187Z,2818.12
2022-09-26T09:38:28.192Z,2851.88
2022-09-26T09:39:28.216Z,2958.75
2022-09-26T09:40:28.237Z,3093.75
2022-09-26T09:41:28.151Z,3161.25
2022-09-26T09:42:28.142Z,2919.38
2022-09-26T09:43:28.159Z,2851.88
2022-09-26T09:44:28.162Z,2868.75
2022-09-26T09:45:28.131Z,3065.62
2022-09-26T09:46:28.166Z,3015.00
2022-09-26T09:47:28.105Z,3026.25
2022-09-26T09:48:28.123Z,2773.12
2022-09-26T09:49:28.102Z,2908.12
2022-09-26T09:50:28.108Z,2947.50
2022-09-26T09:51:28.089Z,2756.25
2022-09-26T09:52:28.102Z,1878.75
2022-09-26T09:53:28.103Z,2880.00
2022-09-26T09:54:28.079Z,2936.25
2022-09-26T09:55:28.071Z,2773.12
2022-09-26T09:56:28.058Z,2632.50
2022-09-26T09:57:28.067Z,2565.00
2022-09-26T09:58:28.047Z,2430.00
2022-09-26T09:59:28.042Z,2536.88
2022-09-26T10:00:28.042Z,2857.50
2022-09-26T10:01:28.035Z,2851.88
2022-09-26T10:02:28.048Z,2677.50
2022-09-26T10:03:28.051Z,2688.75
2022-09-26T10:04:28.030Z,2615.62
2022-09-26T10:05:27.997Z,2531.25
2022-09-26T10:06:45.245Z,2559.38
2022-09-26T10:07:29.035Z,2542.50
2022-09-26T10:08:27.985Z,2542.50
2022-09-26T10:09:35.667Z,2565.00
2022-09-26T10:10:28.970Z,2469.38
2022-09-26T10:11:27.981Z,2255.62
2022-09-26T10:12:28.024Z,2193.75
2022-09-26T10:13:27.950Z,2188.12
2022-09-26T10:14:27.933Z,2311.88
2022-09-26T10:15:27.936Z,2598.75
2022-09-26T10:16:28.034Z,2863.12
2022-09-26T10:17:27.942Z,2638.12
2022-09-26T10:18:27.935Z,2334.38
2022-09-26T10:19:27.902Z,720.00
2022-09-26T10:20:27.898Z,697.50
2022-09-26T10:21:27.891Z,2553.75
2022-09-26T10:22:27.899Z,838.12
2022-09-26T10:23:27.870Z,2823.75
2022-09-26T10:24:27.886Z,714.38
2022-09-26T10:25:27.873Z,680.62
2022-09-26T10:26:31.453Z,883.12
2022-09-26T10:27:28.878Z,720.00
2022-09-26T10:28:27.874Z,815.62
2022-09-26T10:29:27.854Z,1732.50
2022-09-26T10:30:27.880Z,753.75
2022-09-26T10:31:28.103Z,928.12
2022-09-26T10:32:27.848Z,399.38
2022-09-26T10:33:27.821Z,343.12
2022-09-26T10:34:27.838Z,382.50
2022-09-26T10:35:27.818Z,354.38
2022-09-26T10:36:27.803Z,405.00
2022-09-26T10:37:27.841Z,742.50
2022-09-26T10:38:27.801Z,877.50
2022-09-26T10:39:27.781Z,388.12
2022-09-26T10:40:27.780Z,393.75
2022-09-26T10:41:27.762Z,630.00
2022-09-26T10:42:32.167Z,461.25
2022-09-26T10:43:28.784Z,556.88
2022-09-26T10:44:27.818Z,573.75
2022-09-26T10:45:27.761Z,1687.50
2022-09-26T10:46:27.811Z,1496.25
2022-09-26T10:47:27.738Z,691.88
2022-09-26T10:48:27.722Z,1389.38
2022-09-26T10:49:27.754Z,1805.62
2022-09-26T10:50:27.724Z,1248.75
2022-09-26T10:51:27.746Z,1670.62
2022-09-26T10:52:27.709Z,849.38
2022-09-26T10:53:27.687Z,624.38
2022-09-26T10:54:27.686Z,506.25
2022-09-26T10:55:27.722Z,495.00
2022-09-26T10:56:27.687Z,1631.25
2022-09-26T10:57:27.893Z,596.25
2022-09-26T10:58:27.653Z,613.12
2022-09-26T10:59:27.701Z,680.62
2022-09-26T11:00:27.650Z,1743.75
2022-09-26T11:01:27.719Z,759.38
2022-09-26T11:02:27.645Z,1743.75
2022-09-26T11:03:27.675Z,658.12
2022-09-26T11:04:27.657Z,680.62
2022-09-26T11:05:27.726Z,821.25
2022-09-26T11:06:27.610Z,663.75
2022-09-26T11:07:28.626Z,675.00
2022-09-26T11:08:27.606Z,1220.62
2022-09-26T11:09:27.617Z,675.00
2022-09-26T11:10:27.738Z,888.75
2022-09-26T11:11:27.574Z,607.50
2022-09-26T11:12:27.568Z,731.25
2022-09-26T11:13:27.553Z,759.38
2022-09-26T11:14:28.536Z,579.38
2022-09-26T11:15:28.708Z,601.88
2022-09-26T11:16:27.597Z,686.25
2022-09-26T11:17:27.525Z,630.00
2022-09-26T11:18:27.534Z,720.00
2022-09-26T11:19:27.523Z,860.62
2022-09-26T11:20:27.545Z,866.25
2022-09-26T11:21:29.302Z,821.25
2022-09-26T11:22:28.506Z,821.25
2022-09-26T11:23:27.525Z,601.88
2022-09-26T11:24:27.505Z,472.50
2022-09-26T11:25:27.509Z,376.88
2022-09-26T11:26:27.486Z,354.38
2022-09-26T11:27:27.511Z,427.50
2022-09-26T11:28:27.467Z,500.62
2022-09-26T11:29:27.474Z,506.25
2022-09-26T11:30:27.458Z,500.62
2022-09-26T11:31:27.562Z,444.38
2022-09-26T11:32:27.491Z,382.50
2022-09-26T11:33:27.435Z,331.88
2022-09-26T11:34:27.485Z,292.50
2022-09-26T11:35:27.410Z,270.00
2022-09-26T11:36:27.404Z,337.50
2022-09-26T11:37:27.461Z,416.25
2022-09-26T11:38:27.429Z,343.12
2022-09-26T11:39:27.401Z,326.25
2022-09-26T11:40:27.484Z,337.50
2022-09-26T11:41:27.395Z,444.38
2022-09-26T11:42:27.412Z,545.62
2022-09-26T11:43:27.366Z,742.50
2022-09-26T11:44:27.388Z,843.75
2022-09-26T11:45:27.373Z,680.62
2022-09-26T11:46:27.441Z,646.88
2022-09-26T11:47:27.406Z,731.25
2022-09-26T11:48:27.364Z,618.75
2022-09-26T11:49:27.348Z,579.38
2022-09-26T11:50:27.356Z,720.00
2022-09-26T11:51:27.331Z,703.12
2022-09-26T11:52:27.315Z,630.00
2022-09-26T11:53:27.304Z,556.88
2022-09-26T11:54:27.319Z,483.75
2022-09-26T11:55:27.287Z,416.25
2022-09-26T11:56:27.363Z,360.00
2022-09-26T11:57:27.275Z,326.25
2022-09-26T11:58:27.295Z,320.62
2022-09-26T11:59:27.310Z,348.75
2022-09-26T12:00:27.298Z,405.00
2022-09-26T12:01:28.011Z,450.00
2022-09-26T12:02:27.316Z,438.75
2022-09-26T12:03:27.397Z,405.00
2022-09-26T12:04:27.236Z,382.50
2022-09-26T12:05:27.737Z,382.50
2022-09-26T12:06:28.230Z,405.00
2022-09-26T12:07:27.219Z,450.00
2022-09-26T12:08:27.222Z,506.25
2022-09-26T12:09:27.184Z,562.50
2022-09-26T12:10:27.217Z,613.12
2022-09-26T12:11:27.228Z,630.00
2022-09-26T12:12:27.177Z,641.25
2022-09-26T12:13:27.157Z,613.12
2022-09-26T12:14:28.184Z,545.62
2022-09-26T12:15:27.172Z,500.62
2022-09-26T12:16:27.186Z,483.75
2022-09-26T12:17:27.173Z,455.62
2022-09-26T12:18:27.196Z,438.75
2022-09-26T12:19:27.128Z,433.12
2022-09-26T12:20:27.133Z,421.88
2022-09-26T12:21:27.112Z,410.62
2022-09-26T12:22:27.135Z,399.38
2022-09-26T12:23:27.152Z,393.75
2022-09-26T12:24:27.084Z,382.50
2022-09-26T12:25:27.084Z,382.50
2022-09-26T12:26:27.080Z,433.12
2022-09-26T12:27:27.108Z,556.88
2022-09-26T12:28:29.453Z,410.62
2022-09-26T12:29:27.067Z,354.38
2022-09-26T12:30:27.048Z,337.50
2022-09-26T12:31:27.085Z,348.75
2022-09-26T12:32:27.056Z,388.12
2022-09-26T12:33:27.070Z,421.88
2022-09-26T12:34:27.025Z,421.88
2022-09-26T12:35:27.088Z,416.25
2022-09-26T12:36:27.013Z,410.62
2022-09-26T12:37:27.133Z,399.38
2022-09-26T12:38:27.025Z,388.12
2022-09-26T12:39:26.997Z,376.88
2022-09-26T12:40:28.042Z,376.88
2022-09-26T12:41:26.980Z,382.50
2022-09-26T12:42:26.959Z,382.50
2022-09-26T12:43:26.965Z,382.50
2022-09-26T12:44:26.960Z,376.88
2022-09-26T12:45:26.952Z,376.88
2022-09-26T12:46:26.981Z,382.50
2022-09-26T12:47:26.959Z,382.50
2022-09-26T12:48:26.926Z,382.50
2022-09-26T12:49:26.948Z,376.88